sensor_id;sensor_type;location;lat;lon;timestamp;P1;durP1;ratioP1;P2;durP2;ratioP2
10313;SDS011;5202;49.138;10.090;2024-03-02T00:01:18;32.20;;;17.23;;
10313;SDS011;5202;49.138;10.090;2024-03-02T00:03:46;29.93;;;17.00;;
10313;SDS011;5202;49.138;10.090;2024-03-02T00:06:14;43.57;;;24.27;;
10313;SDS011;5202;49.138;10.090;2024-03-02T00:08:49;49.93;;;24.87;;
10313;SDS011;5202;49.138;10.090;2024-03-02T00:11:17;19.70;;;13.43;;
10313;SDS011;5202;49.138;10.090;2024-03-02T00:13:45;18.57;;;12.43;;
10313;SDS011;5202;49.138;10.090;2024-03-02T00:16:14;18.20;;;13.07;;
10313;SDS011;5202;49.138;10.090;2024-03-02T00:18:42;20.97;;;13.53;;
10313;SDS011;5202;49.138;10.090;2024-03-02T00:21:11;24.93;;;16.80;;
10313;SDS011;5202;49.138;10.090;2024-03-02T00:23:41;25.23;;;16.70;;
10313;SDS011;5202;49.138;10.090;2024-03-02T00:26:12;20.03;;;13.33;;
10313;SDS011;5202;49.138;10.090;2024-03-02T00:28:41;25.97;;;18.83;;
10313;SDS011;5202;49.138;10.090;2024-03-02T00:31:12;21.30;;;15.33;;
10313;SDS011;5202;49.138;10.090;2024-03-02T00:33:41;19.60;;;13.87;;
10313;SDS011;5202;49.138;10.090;2024-03-02T00:36:11;18.67;;;13.03;;
10313;SDS011;5202;49.138;10.090;2024-03-02T00:38:44;19.33;;;12.70;;
10313;SDS011;5202;49.138;10.090;2024-03-02T00:41:17;21.43;;;13.23;;
10313;SDS011;5202;49.138;10.090;2024-03-02T00:44:00;18.57;;;13.10;;
10313;SDS011;5202;49.138;10.090;2024-03-02T00:46:32;21.63;;;12.90;;
10313;SDS011;5202;49.138;10.090;2024-03-02T00:49:03;19.90;;;12.90;;
10313;SDS011;5202;49.138;10.090;2024-03-02T00:51:34;18.83;;;12.67;;
10313;SDS011;5202;49.138;10.090;2024-03-02T00:54:03;19.50;;;12.83;;
10313;SDS011;5202;49.138;10.090;2024-03-02T00:56:35;17.67;;;12.70;;
10313;SDS011;5202;49.138;10.090;2024-03-02T00:59:03;20.33;;;13.50;;
10313;SDS011;5202;49.138;10.090;2024-03-02T01:01:32;19.53;;;12.70;;
10313;SDS011;5202;49.138;10.090;2024-03-02T01:04:03;18.40;;;13.03;;
10313;SDS011;5202;49.138;10.090;2024-03-02T01:06:43;18.40;;;13.10;;
10313;SDS011;5202;49.138;10.090;2024-03-02T01:09:15;22.23;;;13.77;;
10313;SDS011;5202;49.138;10.090;2024-03-02T01:11:46;17.80;;;12.60;;
10313;SDS011;5202;49.138;10.090;2024-03-02T01:14:14;21.07;;;13.87;;
10313;SDS011;5202;49.138;10.090;2024-03-02T01:16:43;20.87;;;12.87;;
10313;SDS011;5202;49.138;10.090;2024-03-02T01:19:11;18.07;;;12.50;;
10313;SDS011;5202;49.138;10.090;2024-03-02T01:21:40;21.47;;;13.27;;
10313;SDS011;5202;49.138;10.090;2024-03-02T01:24:08;20.67;;;13.40;;
10313;SDS011;5202;49.138;10.090;2024-03-02T01:26:36;19.30;;;13.60;;
10313;SDS011;5202;49.138;10.090;2024-03-02T01:29:06;20.53;;;12.97;;
10313;SDS011;5202;49.138;10.090;2024-03-02T01:31:35;19.17;;;12.70;;
10313;SDS011;5202;49.138;10.090;2024-03-02T01:34:03;20.33;;;14.27;;
10313;SDS011;5202;49.138;10.090;2024-03-02T01:36:31;19.83;;;13.93;;
10313;SDS011;5202;49.138;10.090;2024-03-02T01:39:00;18.00;;;12.70;;
10313;SDS011;5202;49.138;10.090;2024-03-02T01:41:28;18.07;;;12.30;;
10313;SDS011;5202;49.138;10.090;2024-03-02T01:43:57;17.87;;;11.67;;
10313;SDS011;5202;49.138;10.090;2024-03-02T01:46:26;17.20;;;12.33;;
10313;SDS011;5202;49.138;10.090;2024-03-02T01:48:55;18.43;;;11.40;;
10313;SDS011;5202;49.138;10.090;2024-03-02T01:51:24;15.87;;;10.60;;
10313;SDS011;5202;49.138;10.090;2024-03-02T01:53:53;17.93;;;11.50;;
10313;SDS011;5202;49.138;10.090;2024-03-02T01:56:21;16.40;;;10.87;;
10313;SDS011;5202;49.138;10.090;2024-03-02T01:58:50;17.27;;;11.33;;
10313;SDS011;5202;49.138;10.090;2024-03-02T02:01:19;14.70;;;10.30;;
10313;SDS011;5202;49.138;10.090;2024-03-02T02:03:48;16.27;;;10.93;;
10313;SDS011;5202;49.138;10.090;2024-03-02T02:06:17;16.20;;;11.37;;
10313;SDS011;5202;49.138;10.090;2024-03-02T02:08:46;16.87;;;11.67;;
10313;SDS011;5202;49.138;10.090;2024-03-02T02:11:14;14.57;;;10.73;;
10313;SDS011;5202;49.138;10.090;2024-03-02T02:13:43;15.60;;;10.87;;
10313;SDS011;5202;49.138;10.090;2024-03-02T02:16:11;14.87;;;10.40;;
10313;SDS011;5202;49.138;10.090;2024-03-02T02:18:40;16.53;;;10.60;;
10313;SDS011;5202;49.138;10.090;2024-03-02T02:21:10;15.67;;;10.67;;
10313;SDS011;5202;49.138;10.090;2024-03-02T02:23:39;18.17;;;11.70;;
10313;SDS011;5202;49.138;10.090;2024-03-02T02:26:12;16.17;;;10.93;;
10313;SDS011;5202;49.138;10.090;2024-03-02T02:28:41;17.83;;;11.50;;
10313;SDS011;5202;49.138;10.090;2024-03-02T02:31:14;16.10;;;10.67;;
10313;SDS011;5202;49.138;10.090;2024-03-02T02:33:42;18.17;;;11.17;;
10313;SDS011;5202;49.138;10.090;2024-03-02T02:36:10;15.73;;;10.03;;
10313;SDS011;5202;49.138;10.090;2024-03-02T02:38:42;14.83;;;10.53;;
10313;SDS011;5202;49.138;10.090;2024-03-02T02:41:13;15.50;;;10.50;;
10313;SDS011;5202;49.138;10.090;2024-03-02T02:43:42;14.20;;;10.03;;
10313;SDS011;5202;49.138;10.090;2024-03-02T02:46:11;16.23;;;10.80;;
10313;SDS011;5202;49.138;10.090;2024-03-02T02:48:39;16.10;;;10.93;;
10313;SDS011;5202;49.138;10.090;2024-03-02T02:51:08;15.63;;;10.50;;
10313;SDS011;5202;49.138;10.090;2024-03-02T02:53:36;17.13;;;10.87;;
10313;SDS011;5202;49.138;10.090;2024-03-02T02:56:08;14.87;;;10.27;;
10313;SDS011;5202;49.138;10.090;2024-03-02T02:58:37;18.40;;;11.47;;
10313;SDS011;5202;49.138;10.090;2024-03-02T03:01:05;17.97;;;12.10;;
10313;SDS011;5202;49.138;10.090;2024-03-02T03:03:34;18.80;;;12.03;;
10313;SDS011;5202;49.138;10.090;2024-03-02T03:06:03;22.07;;;12.27;;
10313;SDS011;5202;49.138;10.090;2024-03-02T03:08:31;18.47;;;11.73;;
10313;SDS011;5202;49.138;10.090;2024-03-02T03:11:00;18.23;;;11.93;;
10313;SDS011;5202;49.138;10.090;2024-03-02T03:13:30;17.70;;;11.00;;
10313;SDS011;5202;49.138;10.090;2024-03-02T03:15:59;16.27;;;11.23;;
10313;SDS011;5202;49.138;10.090;2024-03-02T03:18:27;17.60;;;11.27;;
10313;SDS011;5202;49.138;10.090;2024-03-02T03:20:56;18.10;;;12.00;;
10313;SDS011;5202;49.138;10.090;2024-03-02T03:23:24;18.60;;;11.33;;
10313;SDS011;5202;49.138;10.090;2024-03-02T03:25:53;14.97;;;10.40;;
10313;SDS011;5202;49.138;10.090;2024-03-02T03:28:21;14.90;;;10.40;;
10313;SDS011;5202;49.138;10.090;2024-03-02T03:30:49;16.73;;;11.03;;
10313;SDS011;5202;49.138;10.090;2024-03-02T03:33:18;14.37;;;10.63;;
10313;SDS011;5202;49.138;10.090;2024-03-02T03:35:46;17.63;;;11.23;;
10313;SDS011;5202;49.138;10.090;2024-03-02T03:38:15;18.63;;;12.03;;
10313;SDS011;5202;49.138;10.090;2024-03-02T03:40:43;18.13;;;11.37;;
10313;SDS011;5202;49.138;10.090;2024-03-02T03:43:11;19.20;;;11.57;;
10313;SDS011;5202;49.138;10.090;2024-03-02T03:45:40;16.50;;;10.57;;
10313;SDS011;5202;49.138;10.090;2024-03-02T03:48:10;20.33;;;12.23;;
10313;SDS011;5202;49.138;10.090;2024-03-02T03:50:38;19.63;;;12.63;;
10313;SDS011;5202;49.138;10.090;2024-03-02T03:53:06;20.10;;;12.33;;
10313;SDS011;5202;49.138;10.090;2024-03-02T03:55:35;18.80;;;11.23;;
10313;SDS011;5202;49.138;10.090;2024-03-02T03:58:03;18.43;;;11.13;;
10313;SDS011;5202;49.138;10.090;2024-03-02T04:00:32;20.27;;;11.97;;
10313;SDS011;5202;49.138;10.090;2024-03-02T04:03:00;19.53;;;11.03;;
10313;SDS011;5202;49.138;10.090;2024-03-02T04:05:30;20.97;;;12.23;;
10313;SDS011;5202;49.138;10.090;2024-03-02T04:07:59;18.07;;;12.10;;
10313;SDS011;5202;49.138;10.090;2024-03-02T04:10:27;18.70;;;11.90;;
10313;SDS011;5202;49.138;10.090;2024-03-02T04:12:56;20.00;;;13.23;;
10313;SDS011;5202;49.138;10.090;2024-03-02T04:15:25;19.73;;;11.73;;
10313;SDS011;5202;49.138;10.090;2024-03-02T04:17:53;19.23;;;12.17;;
10313;SDS011;5202;49.138;10.090;2024-03-02T04:20:22;18.57;;;12.50;;
10313;SDS011;5202;49.138;10.090;2024-03-02T04:22:53;19.90;;;12.40;;
10313;SDS011;5202;49.138;10.090;2024-03-02T04:25:21;18.67;;;11.63;;
10313;SDS011;5202;49.138;10.090;2024-03-02T04:27:50;17.67;;;11.30;;
10313;SDS011;5202;49.138;10.090;2024-03-02T04:30:18;19.23;;;11.80;;
10313;SDS011;5202;49.138;10.090;2024-03-02T04:32:47;17.77;;;11.07;;
10313;SDS011;5202;49.138;10.090;2024-03-02T04:35:15;17.30;;;10.83;;
10313;SDS011;5202;49.138;10.090;2024-03-02T04:37:44;19.70;;;10.97;;
10313;SDS011;5202;49.138;10.090;2024-03-02T04:40:13;18.77;;;11.50;;
10313;SDS011;5202;49.138;10.090;2024-03-02T04:42:42;20.67;;;11.57;;
10313;SDS011;5202;49.138;10.090;2024-03-02T04:45:10;18.23;;;11.63;;
10313;SDS011;5202;49.138;10.090;2024-03-02T04:47:39;19.17;;;12.53;;
10313;SDS011;5202;49.138;10.090;2024-03-02T04:50:08;20.33;;;12.30;;
10313;SDS011;5202;49.138;10.090;2024-03-02T04:52:36;21.70;;;11.63;;
10313;SDS011;5202;49.138;10.090;2024-03-02T04:55:05;19.00;;;10.80;;
10313;SDS011;5202;49.138;10.090;2024-03-02T04:57:37;17.00;;;11.37;;
10313;SDS011;5202;49.138;10.090;2024-03-02T05:00:06;19.03;;;11.53;;
10313;SDS011;5202;49.138;10.090;2024-03-02T05:02:36;16.67;;;11.00;;
10313;SDS011;5202;49.138;10.090;2024-03-02T05:05:04;15.37;;;10.87;;
10313;SDS011;5202;49.138;10.090;2024-03-02T05:07:34;16.77;;;10.93;;
10313;SDS011;5202;49.138;10.090;2024-03-02T05:10:03;16.20;;;10.37;;
10313;SDS011;5202;49.138;10.090;2024-03-02T05:12:32;18.33;;;10.13;;
10313;SDS011;5202;49.138;10.090;2024-03-02T05:15:24;16.23;;;10.60;;
10313;SDS011;5202;49.138;10.090;2024-03-02T05:17:53;17.30;;;10.20;;
10313;SDS011;5202;49.138;10.090;2024-03-02T05:20:24;17.13;;;11.13;;
10313;SDS011;5202;49.138;10.090;2024-03-02T05:22:52;19.20;;;10.83;;
10313;SDS011;5202;49.138;10.090;2024-03-02T05:25:21;18.30;;;11.20;;
10313;SDS011;5202;49.138;10.090;2024-03-02T05:27:50;18.83;;;11.50;;
10313;SDS011;5202;49.138;10.090;2024-03-02T05:30:18;19.70;;;11.93;;
10313;SDS011;5202;49.138;10.090;2024-03-02T05:32:48;18.30;;;11.13;;
10313;SDS011;5202;49.138;10.090;2024-03-02T05:35:16;16.77;;;10.50;;
10313;SDS011;5202;49.138;10.090;2024-03-02T05:37:45;19.07;;;11.47;;
10313;SDS011;5202;49.138;10.090;2024-03-02T05:40:13;18.00;;;11.60;;
10313;SDS011;5202;49.138;10.090;2024-03-02T05:42:42;17.80;;;11.43;;
10313;SDS011;5202;49.138;10.090;2024-03-02T05:45:10;19.93;;;12.07;;
10313;SDS011;5202;49.138;10.090;2024-03-02T05:47:39;17.73;;;11.43;;
10313;SDS011;5202;49.138;10.090;2024-03-02T05:50:09;21.27;;;12.50;;
10313;SDS011;5202;49.138;10.090;2024-03-02T05:52:37;19.17;;;12.00;;
10313;SDS011;5202;49.138;10.090;2024-03-02T05:55:07;20.70;;;11.93;;
10313;SDS011;5202;49.138;10.090;2024-03-02T05:57:35;17.90;;;11.90;;
10313;SDS011;5202;49.138;10.090;2024-03-02T06:00:22;18.70;;;11.80;;
10313;SDS011;5202;49.138;10.090;2024-03-02T06:02:50;18.80;;;12.07;;
10313;SDS011;5202;49.138;10.090;2024-03-02T06:05:20;20.50;;;12.70;;
10313;SDS011;5202;49.138;10.090;2024-03-02T06:07:49;18.83;;;12.13;;
10313;SDS011;5202;49.138;10.090;2024-03-02T06:10:17;19.00;;;12.13;;
10313;SDS011;5202;49.138;10.090;2024-03-02T06:12:46;18.60;;;11.77;;
10313;SDS011;5202;49.138;10.090;2024-03-02T06:15:14;17.67;;;11.60;;
10313;SDS011;5202;49.138;10.090;2024-03-02T06:17:43;19.37;;;11.97;;
10313;SDS011;5202;49.138;10.090;2024-03-02T06:20:12;20.90;;;12.40;;
10313;SDS011;5202;49.138;10.090;2024-03-02T06:22:42;20.47;;;13.07;;
10313;SDS011;5202;49.138;10.090;2024-03-02T06:25:10;21.47;;;13.33;;
10313;SDS011;5202;49.138;10.090;2024-03-02T06:27:39;21.13;;;12.60;;
10313;SDS011;5202;49.138;10.090;2024-03-02T06:30:08;19.97;;;12.33;;
10313;SDS011;5202;49.138;10.090;2024-03-02T06:32:38;20.83;;;12.20;;
10313;SDS011;5202;49.138;10.090;2024-03-02T06:35:06;19.77;;;12.53;;
10313;SDS011;5202;49.138;10.090;2024-03-02T06:37:38;17.63;;;11.67;;
10313;SDS011;5202;49.138;10.090;2024-03-02T06:40:08;20.50;;;12.97;;
10313;SDS011;5202;49.138;10.090;2024-03-02T06:42:37;21.37;;;12.83;;
10313;SDS011;5202;49.138;10.090;2024-03-02T06:45:06;20.37;;;12.80;;
10313;SDS011;5202;49.138;10.090;2024-03-02T06:47:34;19.23;;;12.13;;
10313;SDS011;5202;49.138;10.090;2024-03-02T06:50:03;23.53;;;13.20;;
10313;SDS011;5202;49.138;10.090;2024-03-02T06:52:33;22.97;;;13.10;;
10313;SDS011;5202;49.138;10.090;2024-03-02T06:55:02;19.70;;;12.30;;
10313;SDS011;5202;49.138;10.090;2024-03-02T06:57:32;19.20;;;12.60;;
10313;SDS011;5202;49.138;10.090;2024-03-02T07:00:01;22.50;;;13.07;;
10313;SDS011;5202;49.138;10.090;2024-03-02T07:02:32;19.57;;;12.67;;
10313;SDS011;5202;49.138;10.090;2024-03-02T07:05:00;19.80;;;12.17;;
10313;SDS011;5202;49.138;10.090;2024-03-02T07:07:29;19.23;;;12.57;;
10313;SDS011;5202;49.138;10.090;2024-03-02T07:09:58;18.83;;;12.80;;
10313;SDS011;5202;49.138;10.090;2024-03-02T07:12:27;17.97;;;11.43;;
10313;SDS011;5202;49.138;10.090;2024-03-02T07:14:57;22.13;;;12.17;;
10313;SDS011;5202;49.138;10.090;2024-03-02T07:17:47;20.07;;;12.57;;
10313;SDS011;5202;49.138;10.090;2024-03-02T07:20:15;19.10;;;12.10;;
10313;SDS011;5202;49.138;10.090;2024-03-02T07:22:44;18.93;;;11.90;;
10313;SDS011;5202;49.138;10.090;2024-03-02T07:25:12;17.47;;;11.57;;
10313;SDS011;5202;49.138;10.090;2024-03-02T07:27:44;21.07;;;12.33;;
10313;SDS011;5202;49.138;10.090;2024-03-02T07:30:14;17.17;;;11.53;;
10313;SDS011;5202;49.138;10.090;2024-03-02T07:32:44;13.60;;;9.13;;
10313;SDS011;5202;49.138;10.090;2024-03-02T07:35:13;17.60;;;11.90;;
10313;SDS011;5202;49.138;10.090;2024-03-02T07:37:42;15.63;;;11.13;;
10313;SDS011;5202;49.138;10.090;2024-03-02T07:40:10;17.67;;;11.60;;
10313;SDS011;5202;49.138;10.090;2024-03-02T07:42:40;14.83;;;10.47;;
10313;SDS011;5202;49.138;10.090;2024-03-02T07:45:09;17.03;;;10.97;;
10313;SDS011;5202;49.138;10.090;2024-03-02T07:47:39;15.10;;;11.07;;
10313;SDS011;5202;49.138;10.090;2024-03-02T07:50:08;14.83;;;11.00;;
10313;SDS011;5202;49.138;10.090;2024-03-02T07:52:37;15.67;;;10.30;;
10313;SDS011;5202;49.138;10.090;2024-03-02T07:55:05;14.90;;;10.83;;
10313;SDS011;5202;49.138;10.090;2024-03-02T07:57:34;16.37;;;11.00;;
10313;SDS011;5202;49.138;10.090;2024-03-02T08:00:03;15.17;;;10.57;;
10313;SDS011;5202;49.138;10.090;2024-03-02T08:02:38;16.57;;;11.00;;
10313;SDS011;5202;49.138;10.090;2024-03-02T08:05:08;17.20;;;11.43;;
10313;SDS011;5202;49.138;10.090;2024-03-02T08:07:37;16.27;;;10.87;;
10313;SDS011;5202;49.138;10.090;2024-03-02T08:10:06;14.37;;;10.47;;
10313;SDS011;5202;49.138;10.090;2024-03-02T08:12:35;14.63;;;9.67;;
10313;SDS011;5202;49.138;10.090;2024-03-02T08:15:04;14.20;;;9.80;;
10313;SDS011;5202;49.138;10.090;2024-03-02T08:17:34;15.53;;;10.73;;
10313;SDS011;5202;49.138;10.090;2024-03-02T08:20:07;16.07;;;10.37;;
10313;SDS011;5202;49.138;10.090;2024-03-02T08:22:36;14.10;;;10.00;;
10313;SDS011;5202;49.138;10.090;2024-03-02T08:25:05;16.27;;;11.37;;
10313;SDS011;5202;49.138;10.090;2024-03-02T08:27:36;14.47;;;10.23;;
10313;SDS011;5202;49.138;10.090;2024-03-02T08:30:07;13.20;;;9.97;;
10313;SDS011;5202;49.138;10.090;2024-03-02T08:32:37;13.40;;;10.13;;
10313;SDS011;5202;49.138;10.090;2024-03-02T08:35:08;14.43;;;9.30;;
10313;SDS011;5202;49.138;10.090;2024-03-02T08:37:38;13.50;;;9.63;;
10313;SDS011;5202;49.138;10.090;2024-03-02T08:40:09;15.33;;;10.37;;
10313;SDS011;5202;49.138;10.090;2024-03-02T08:42:43;11.40;;;8.67;;
10313;SDS011;5202;49.138;10.090;2024-03-02T08:45:12;14.93;;;9.10;;
10313;SDS011;5202;49.138;10.090;2024-03-02T08:47:40;13.67;;;8.70;;
10313;SDS011;5202;49.138;10.090;2024-03-02T08:50:11;11.70;;;8.80;;
10313;SDS011;5202;49.138;10.090;2024-03-02T08:52:40;13.37;;;9.83;;
10313;SDS011;5202;49.138;10.090;2024-03-02T08:55:11;13.80;;;9.90;;
10313;SDS011;5202;49.138;10.090;2024-03-02T08:57:40;10.20;;;8.20;;
10313;SDS011;5202;49.138;10.090;2024-03-02T09:00:09;10.67;;;7.80;;
10313;SDS011;5202;49.138;10.090;2024-03-02T09:02:39;12.03;;;8.03;;
10313;SDS011;5202;49.138;10.090;2024-03-02T09:05:07;12.13;;;8.87;;
10313;SDS011;5202;49.138;10.090;2024-03-02T09:07:38;13.67;;;9.20;;
10313;SDS011;5202;49.138;10.090;2024-03-02T09:10:07;9.97;;;7.53;;
10313;SDS011;5202;49.138;10.090;2024-03-02T09:12:39;10.07;;;7.60;;
10313;SDS011;5202;49.138;10.090;2024-03-02T09:15:07;11.73;;;8.40;;
10313;SDS011;5202;49.138;10.090;2024-03-02T09:17:37;10.50;;;7.90;;
10313;SDS011;5202;49.138;10.090;2024-03-02T09:20:05;10.20;;;7.67;;
10313;SDS011;5202;49.138;10.090;2024-03-02T09:22:34;10.30;;;7.30;;
10313;SDS011;5202;49.138;10.090;2024-03-02T09:25:04;11.50;;;7.33;;
10313;SDS011;5202;49.138;10.090;2024-03-02T09:27:36;9.40;;;7.43;;
10313;SDS011;5202;49.138;10.090;2024-03-02T09:30:06;10.17;;;7.53;;
10313;SDS011;5202;49.138;10.090;2024-03-02T09:32:37;10.33;;;7.40;;
10313;SDS011;5202;49.138;10.090;2024-03-02T09:35:08;9.13;;;7.03;;
10313;SDS011;5202;49.138;10.090;2024-03-02T09:37:36;9.73;;;7.43;;
10313;SDS011;5202;49.138;10.090;2024-03-02T09:40:07;10.07;;;7.50;;
10313;SDS011;5202;49.138;10.090;2024-03-02T09:42:37;11.37;;;8.23;;
10313;SDS011;5202;49.138;10.090;2024-03-02T09:45:05;10.67;;;7.53;;
10313;SDS011;5202;49.138;10.090;2024-03-02T09:47:35;8.80;;;7.13;;
10313;SDS011;5202;49.138;10.090;2024-03-02T09:50:03;8.60;;;6.27;;
10313;SDS011;5202;49.138;10.090;2024-03-02T09:52:33;8.23;;;6.03;;
10313;SDS011;5202;49.138;10.090;2024-03-02T09:55:04;6.47;;;5.37;;
10313;SDS011;5202;49.138;10.090;2024-03-02T09:57:34;7.07;;;4.77;;
10313;SDS011;5202;49.138;10.090;2024-03-02T10:00:07;7.73;;;5.73;;
10313;SDS011;5202;49.138;10.090;2024-03-02T10:02:41;7.13;;;5.40;;
10313;SDS011;5202;49.138;10.090;2024-03-02T10:05:09;7.27;;;5.53;;
10313;SDS011;5202;49.138;10.090;2024-03-02T10:07:38;5.07;;;4.00;;
10313;SDS011;5202;49.138;10.090;2024-03-02T10:10:14;5.73;;;4.30;;
10313;SDS011;5202;49.138;10.090;2024-03-02T10:12:43;5.57;;;4.20;;
10313;SDS011;5202;49.138;10.090;2024-03-02T10:15:12;4.80;;;4.20;;
10313;SDS011;5202;49.138;10.090;2024-03-02T10:17:41;5.30;;;4.13;;
10313;SDS011;5202;49.138;10.090;2024-03-02T10:20:21;4.67;;;3.90;;
10313;SDS011;5202;49.138;10.090;2024-03-02T10:22:51;6.30;;;3.60;;
10313;SDS011;5202;49.138;10.090;2024-03-02T10:25:30;5.07;;;3.90;;
10313;SDS011;5202;49.138;10.090;2024-03-02T10:28:03;5.13;;;3.77;;
10313;SDS011;5202;49.138;10.090;2024-03-02T10:30:32;4.17;;;3.03;;
10313;SDS011;5202;49.138;10.090;2024-03-02T10:33:02;4.03;;;3.17;;
10313;SDS011;5202;49.138;10.090;2024-03-02T10:35:32;4.93;;;3.57;;
10313;SDS011;5202;49.138;10.090;2024-03-02T10:38:03;5.10;;;3.13;;
10313;SDS011;5202;49.138;10.090;2024-03-02T10:40:34;3.80;;;2.28;;
10313;SDS011;5202;49.138;10.090;2024-03-02T10:43:03;3.28;;;2.95;;
10313;SDS011;5202;49.138;10.090;2024-03-02T10:45:34;3.97;;;2.97;;
10313;SDS011;5202;49.138;10.090;2024-03-02T10:48:02;3.30;;;2.67;;
10313;SDS011;5202;49.138;10.090;2024-03-02T10:50:32;3.88;;;3.10;;
10313;SDS011;5202;49.138;10.090;2024-03-02T10:53:01;3.75;;;2.58;;
10313;SDS011;5202;49.138;10.090;2024-03-02T10:55:32;2.97;;;2.28;;
10313;SDS011;5202;49.138;10.090;2024-03-02T10:58:04;2.70;;;2.22;;
10313;SDS011;5202;49.138;10.090;2024-03-02T11:00:34;2.53;;;1.95;;
10313;SDS011;5202;49.138;10.090;2024-03-02T11:03:06;2.17;;;1.90;;
10313;SDS011;5202;49.138;10.090;2024-03-02T11:05:42;4.10;;;2.55;;
10313;SDS011;5202;49.138;10.090;2024-03-02T11:08:16;2.80;;;2.10;;
10313;SDS011;5202;49.138;10.090;2024-03-02T11:10:50;3.47;;;2.40;;
10313;SDS011;5202;49.138;10.090;2024-03-02T11:13:22;4.55;;;1.80;;
10313;SDS011;5202;49.138;10.090;2024-03-02T11:15:56;2.10;;;1.90;;
10313;SDS011;5202;49.138;10.090;2024-03-02T11:18:31;3.08;;;2.08;;
10313;SDS011;5202;49.138;10.090;2024-03-02T11:21:01;1.50;;;1.30;;
10313;SDS011;5202;49.138;10.090;2024-03-02T11:23:31;2.33;;;1.80;;
10313;SDS011;5202;49.138;10.090;2024-03-02T11:26:17;1.55;;;1.40;;
10313;SDS011;5202;49.138;10.090;2024-03-02T11:28:46;1.70;;;1.60;;
10313;SDS011;5202;49.138;10.090;2024-03-02T11:31:15;3.60;;;1.90;;
10313;SDS011;5202;49.138;10.090;2024-03-02T11:33:43;2.13;;;1.92;;
10313;SDS011;5202;49.138;10.090;2024-03-02T11:36:11;3.17;;;1.95;;
10313;SDS011;5202;49.138;10.090;2024-03-02T11:38:40;3.05;;;1.90;;
10313;SDS011;5202;49.138;10.090;2024-03-02T11:41:12;1.90;;;1.70;;
10313;SDS011;5202;49.138;10.090;2024-03-02T11:43:42;2.00;;;1.80;;
10313;SDS011;5202;49.138;10.090;2024-03-02T11:46:12;2.03;;;1.83;;
10313;SDS011;5202;49.138;10.090;2024-03-02T11:48:42;3.50;;;2.38;;
10313;SDS011;5202;49.138;10.090;2024-03-02T11:51:11;2.17;;;1.70;;
10313;SDS011;5202;49.138;10.090;2024-03-02T11:53:39;2.40;;;2.00;;
10313;SDS011;5202;49.138;10.090;2024-03-02T11:56:09;2.95;;;2.20;;
10313;SDS011;5202;49.138;10.090;2024-03-02T11:58:43;2.05;;;1.80;;
10313;SDS011;5202;49.138;10.090;2024-03-02T12:01:13;2.53;;;1.98;;
10313;SDS011;5202;49.138;10.090;2024-03-02T12:03:43;2.40;;;1.85;;
10313;SDS011;5202;49.138;10.090;2024-03-02T12:06:11;2.00;;;1.80;;
10313;SDS011;5202;49.138;10.090;2024-03-02T12:08:40;1.70;;;1.40;;
10313;SDS011;5202;49.138;10.090;2024-03-02T12:11:12;2.40;;;1.80;;
10313;SDS011;5202;49.138;10.090;2024-03-02T12:13:52;1.63;;;1.48;;
10313;SDS011;5202;49.138;10.090;2024-03-02T12:16:23;1.85;;;1.60;;
10313;SDS011;5202;49.138;10.090;2024-03-02T12:18:52;2.00;;;1.80;;
10313;SDS011;5202;49.138;10.090;2024-03-02T12:21:20;2.10;;;1.80;;
10313;SDS011;5202;49.138;10.090;2024-03-02T12:23:49;2.30;;;1.63;;
10313;SDS011;5202;49.138;10.090;2024-03-02T12:26:18;1.70;;;1.60;;
10313;SDS011;5202;49.138;10.090;2024-03-02T12:28:46;4.80;;;3.00;;
10313;SDS011;5202;49.138;10.090;2024-03-02T12:31:16;3.20;;;2.67;;
10313;SDS011;5202;49.138;10.090;2024-03-02T12:33:45;2.65;;;2.42;;
10313;SDS011;5202;49.138;10.090;2024-03-02T12:36:14;3.05;;;2.60;;
10313;SDS011;5202;49.138;10.090;2024-03-02T12:38:43;3.58;;;2.45;;
10313;SDS011;5202;49.138;10.090;2024-03-02T12:41:14;4.80;;;2.10;;
10313;SDS011;5202;49.138;10.090;2024-03-02T12:43:43;2.05;;;1.85;;
10313;SDS011;5202;49.138;10.090;2024-03-02T12:46:11;2.72;;;2.17;;
10313;SDS011;5202;49.138;10.090;2024-03-02T12:48:41;3.47;;;2.10;;
10313;SDS011;5202;49.138;10.090;2024-03-02T12:51:09;3.15;;;2.25;;
10313;SDS011;5202;49.138;10.090;2024-03-02T12:53:38;2.35;;;1.73;;
10313;SDS011;5202;49.138;10.090;2024-03-02T12:56:07;2.38;;;1.95;;
10313;SDS011;5202;49.138;10.090;2024-03-02T12:58:38;3.22;;;1.60;;
10313;SDS011;5202;49.138;10.090;2024-03-02T13:01:08;1.95;;;1.75;;
10313;SDS011;5202;49.138;10.090;2024-03-02T13:03:37;2.38;;;2.10;;
10313;SDS011;5202;49.138;10.090;2024-03-02T13:06:08;2.50;;;2.30;;
10313;SDS011;5202;49.138;10.090;2024-03-02T13:08:44;3.08;;;2.50;;
10313;SDS011;5202;49.138;10.090;2024-03-02T13:11:13;2.20;;;2.00;;
10313;SDS011;5202;49.138;10.090;2024-03-02T13:13:43;2.92;;;2.15;;
10313;SDS011;5202;49.138;10.090;2024-03-02T13:16:12;3.83;;;2.42;;
10313;SDS011;5202;49.138;10.090;2024-03-02T13:18:42;2.38;;;2.17;;
10313;SDS011;5202;49.138;10.090;2024-03-02T13:21:14;3.90;;;2.33;;
10313;SDS011;5202;49.138;10.090;2024-03-02T13:23:42;3.00;;;2.35;;
10313;SDS011;5202;49.138;10.090;2024-03-02T13:26:11;5.22;;;2.30;;
10313;SDS011;5202;49.138;10.090;2024-03-02T13:28:39;4.78;;;2.30;;
10313;SDS011;5202;49.138;10.090;2024-03-02T13:31:07;2.97;;;2.60;;
10313;SDS011;5202;49.138;10.090;2024-03-02T13:33:36;2.47;;;2.20;;
10313;SDS011;5202;49.138;10.090;2024-03-02T13:36:04;2.80;;;2.08;;
10313;SDS011;5202;49.138;10.090;2024-03-02T13:38:35;2.50;;;2.30;;
10313;SDS011;5202;49.138;10.090;2024-03-02T13:41:03;3.58;;;2.45;;
10313;SDS011;5202;49.138;10.090;2024-03-02T13:43:32;2.60;;;1.95;;
10313;SDS011;5202;49.138;10.090;2024-03-02T13:46:01;5.68;;;2.65;;
10313;SDS011;5202;49.138;10.090;2024-03-02T13:48:31;3.75;;;2.20;;
10313;SDS011;5202;49.138;10.090;2024-03-02T13:50:59;2.78;;;2.53;;
10313;SDS011;5202;49.138;10.090;2024-03-02T13:53:28;2.75;;;2.53;;
10313;SDS011;5202;49.138;10.090;2024-03-02T13:55:57;3.13;;;2.78;;
10313;SDS011;5202;49.138;10.090;2024-03-02T13:58:26;3.83;;;3.47;;
10313;SDS011;5202;49.138;10.090;2024-03-02T14:00:54;4.50;;;3.40;;
10313;SDS011;5202;49.138;10.090;2024-03-02T14:03:24;4.32;;;3.70;;
10313;SDS011;5202;49.138;10.090;2024-03-02T14:05:56;4.00;;;3.60;;
10313;SDS011;5202;49.138;10.090;2024-03-02T14:08:25;3.63;;;3.10;;
10313;SDS011;5202;49.138;10.090;2024-03-02T14:10:54;3.85;;;3.05;;
10313;SDS011;5202;49.138;10.090;2024-03-02T14:13:28;3.15;;;2.85;;
10313;SDS011;5202;49.138;10.090;2024-03-02T14:15:56;3.25;;;2.75;;
10313;SDS011;5202;49.138;10.090;2024-03-02T14:18:25;4.97;;;3.28;;
10313;SDS011;5202;49.138;10.090;2024-03-02T14:20:54;5.40;;;3.22;;
10313;SDS011;5202;49.138;10.090;2024-03-02T14:23:23;4.80;;;3.95;;
10313;SDS011;5202;49.138;10.090;2024-03-02T14:25:52;4.18;;;3.70;;
10313;SDS011;5202;49.138;10.090;2024-03-02T14:28:20;4.88;;;4.00;;
10313;SDS011;5202;49.138;10.090;2024-03-02T14:31:10;4.07;;;3.67;;
10313;SDS011;5202;49.138;10.090;2024-03-02T14:33:38;4.40;;;3.88;;
10313;SDS011;5202;49.138;10.090;2024-03-02T14:36:07;4.78;;;4.10;;
10313;SDS011;5202;49.138;10.090;2024-03-02T14:38:35;4.47;;;3.65;;
10313;SDS011;5202;49.138;10.090;2024-03-02T14:41:05;5.18;;;4.28;;
10313;SDS011;5202;49.138;10.090;2024-03-02T14:43:33;6.05;;;5.13;;
10313;SDS011;5202;49.138;10.090;2024-03-02T14:46:03;9.55;;;6.00;;